createdAt,value
2017-10-06T00:00:10.280Z,1.90
2017-10-06T00:02:36.867Z,2.30
2017-10-06T00:05:03.443Z,1.93
2017-10-06T00:07:30.013Z,2.53
2017-10-06T00:09:56.596Z,2.13
2017-10-06T00:12:23.168Z,2.37
2017-10-06T00:14:49.738Z,2.20
2017-10-06T00:17:16.421Z,2.30
2017-10-06T00:19:42.992Z,2.20
2017-10-06T00:22:09.572Z,3.30
2017-10-06T00:24:36.204Z,2.40
2017-10-06T00:27:02.777Z,3.10
2017-10-06T00:29:29.347Z,3.10
2017-10-06T00:31:56.309Z,3.23
2017-10-06T00:34:22.876Z,3.67
2017-10-06T00:36:49.448Z,3.77
2017-10-06T00:39:16.169Z,3.33
2017-10-06T00:41:42.748Z,3.37
2017-10-06T00:44:09.329Z,4.20
2017-10-06T00:46:35.924Z,3.10
2017-10-06T00:49:02.500Z,3.73
2017-10-06T00:51:29.072Z,3.03
2017-10-06T00:53:55.804Z,3.50
2017-10-06T00:56:22.375Z,3.50
2017-10-06T00:58:48.944Z,3.33
2017-10-06T01:01:15.680Z,4.10
2017-10-06T01:03:42.249Z,3.43
2017-10-06T01:06:08.820Z,3.23
2017-10-06T01:08:35.653Z,3.43
2017-10-06T01:11:02.240Z,3.60
2017-10-06T01:13:28.814Z,3.40
2017-10-06T01:15:55.492Z,3.20
2017-10-06T01:18:22.063Z,3.67
2017-10-06T01:20:48.627Z,3.63
2017-10-06T01:23:15.220Z,3.67
2017-10-06T01:25:41.792Z,3.53
2017-10-06T01:28:08.384Z,3.80
2017-10-06T01:30:34.992Z,3.77
2017-10-06T01:33:01.565Z,3.50
2017-10-06T01:35:28.132Z,3.83
2017-10-06T01:37:55.048Z,3.33
2017-10-06T01:40:21.624Z,3.70
2017-10-06T01:42:48.192Z,3.60
2017-10-06T01:45:14.948Z,3.43
2017-10-06T01:47:41.504Z,3.77
2017-10-06T01:50:08.068Z,3.60
2017-10-06T01:52:34.660Z,3.77
2017-10-06T01:55:01.228Z,3.80
2017-10-06T01:57:27.797Z,3.87
2017-10-06T01:59:54.383Z,4.03
2017-10-06T02:02:20.960Z,4.00
2017-10-06T02:04:47.536Z,3.80
2017-10-06T02:07:14.169Z,3.70
2017-10-06T02:09:40.722Z,3.53
2017-10-06T02:12:07.285Z,3.50
2017-10-06T02:14:34.005Z,3.07
2017-10-06T02:17:00.578Z,3.20
2017-10-06T02:19:27.148Z,3.50
2017-10-06T02:21:53.728Z,3.33
2017-10-06T02:24:20.316Z,3.07
2017-10-06T02:26:46.867Z,3.20
2017-10-06T02:29:13.472Z,3.57
2017-10-06T02:31:40.040Z,3.57
2017-10-06T02:34:06.607Z,3.20
2017-10-06T02:38:55.936Z,3.37
2017-10-06T02:41:22.513Z,3.63
2017-10-06T02:43:49.076Z,3.30
2017-10-06T02:46:15.810Z,3.60
2017-10-06T02:48:42.380Z,3.40
2017-10-06T02:51:08.948Z,3.00
2017-10-06T02:53:35.679Z,3.10
2017-10-06T02:56:02.256Z,3.70
2017-10-06T02:58:28.839Z,3.10
2017-10-06T03:00:55.558Z,3.43
2017-10-06T03:03:22.124Z,3.30
2017-10-06T03:05:48.696Z,3.37
2017-10-06T03:08:15.276Z,3.30
2017-10-06T03:10:41.851Z,4.60
2017-10-06T03:13:08.415Z,3.57
2017-10-06T03:15:35.357Z,3.73
2017-10-06T03:18:01.925Z,3.63
2017-10-06T03:20:28.616Z,3.50
2017-10-06T03:22:55.185Z,3.43
2017-10-06T03:25:22.326Z,3.60
2017-10-06T03:27:48.901Z,3.33
2017-10-06T03:30:15.492Z,3.70
2017-10-06T03:32:42.064Z,3.53
2017-10-06T03:35:08.641Z,3.50
2017-10-06T03:37:35.244Z,3.50
2017-10-06T03:40:01.812Z,3.10
2017-10-06T03:42:28.389Z,3.97
2017-10-06T03:44:55.069Z,3.40
2017-10-06T03:47:21.644Z,3.57
2017-10-06T03:49:48.221Z,3.50
2017-10-06T03:52:14.988Z,3.40
2017-10-06T03:54:41.577Z,3.90
2017-10-06T03:57:08.148Z,3.67
2017-10-06T03:59:34.733Z,3.53
2017-10-06T04:02:01.318Z,3.67
2017-10-06T04:04:27.880Z,3.63
2017-10-06T04:06:54.609Z,3.53
2017-10-06T04:09:21.180Z,3.77
2017-10-06T04:11:47.749Z,3.60
2017-10-06T04:14:14.361Z,4.10
2017-10-06T04:16:40.932Z,4.23
2017-10-06T04:19:07.501Z,4.13
2017-10-06T04:21:34.108Z,4.10
2017-10-06T04:24:00.690Z,3.70
2017-10-06T04:26:27.254Z,3.53
2017-10-06T04:28:53.976Z,3.60
2017-10-06T04:31:20.549Z,3.90
2017-10-06T04:33:47.120Z,3.50
2017-10-06T04:36:13.805Z,3.80
2017-10-06T04:38:40.373Z,3.43
2017-10-06T04:41:06.951Z,3.60
2017-10-06T04:43:33.657Z,3.77
2017-10-06T04:46:00.220Z,3.50
2017-10-06T04:48:26.805Z,4.20
2017-10-06T04:50:53.407Z,4.27
2017-10-06T04:53:19.978Z,3.57
2017-10-06T04:55:46.553Z,4.40
2017-10-06T04:58:13.323Z,5.07
2017-10-06T05:00:39.955Z,4.83
2017-10-06T05:03:06.508Z,5.37
2017-10-06T05:05:33.112Z,5.40
2017-10-06T05:07:59.684Z,4.80
2017-10-06T05:10:26.288Z,5.43
2017-10-06T05:12:53.124Z,6.20
2017-10-06T05:15:19.700Z,5.97
2017-10-06T05:17:46.305Z,5.17
2017-10-06T05:20:13.007Z,4.57
2017-10-06T05:22:39.578Z,5.40
2017-10-06T05:25:06.152Z,5.33
2017-10-06T05:27:32.925Z,5.00
2017-10-06T05:29:59.493Z,5.30
2017-10-06T05:32:26.068Z,6.30
2017-10-06T05:34:52.668Z,6.00
2017-10-06T05:37:19.240Z,5.90
2017-10-06T05:39:45.812Z,6.00
2017-10-06T05:42:12.541Z,5.50
2017-10-06T05:44:39.120Z,6.37
2017-10-06T05:47:05.802Z,6.47
2017-10-06T05:49:33.388Z,6.73
2017-10-06T05:51:59.956Z,6.40
2017-10-06T05:54:26.539Z,6.43
2017-10-06T05:56:53.452Z,7.00
2017-10-06T05:59:20.025Z,7.23
2017-10-06T06:01:46.703Z,6.13
2017-10-06T06:04:13.300Z,7.10
2017-10-06T06:06:40.306Z,6.60
2017-10-06T06:09:06.885Z,6.87
2017-10-06T06:11:33.489Z,7.20
2017-10-06T06:14:00.077Z,7.80
2017-10-06T06:16:26.660Z,7.43
2017-10-06T06:18:53.264Z,7.83
2017-10-06T06:21:19.907Z,7.90
2017-10-06T06:23:46.493Z,7.50
2017-10-06T06:26:13.357Z,7.67
2017-10-06T06:28:39.932Z,8.40
2017-10-06T06:31:06.510Z,8.40
2017-10-06T06:33:33.396Z,8.03
2017-10-06T06:35:59.968Z,8.57
2017-10-06T06:38:26.572Z,8.13
2017-10-06T06:40:53.176Z,8.60
2017-10-06T06:43:19.873Z,9.20
2017-10-06T06:45:46.464Z,8.10
2017-10-06T06:48:13.205Z,9.77
2017-10-06T06:50:39.789Z,10.00
2017-10-06T06:53:06.357Z,7.97
2017-10-06T06:55:32.977Z,8.70
2017-10-06T06:57:59.561Z,10.03
2017-10-06T07:00:26.133Z,9.07
2017-10-06T07:02:52.892Z,8.40
2017-10-06T07:05:19.460Z,8.60
2017-10-06T07:07:46.025Z,8.50
2017-10-06T07:10:12.887Z,7.97
2017-10-06T07:12:39.472Z,8.63
2017-10-06T07:15:06.065Z,9.77
2017-10-06T07:17:32.780Z,8.90
2017-10-06T07:19:59.361Z,8.73
2017-10-06T07:22:25.945Z,8.40
2017-10-06T07:24:52.672Z,9.37
2017-10-06T07:27:19.257Z,9.00
2017-10-06T07:29:45.832Z,9.90
2017-10-06T07:32:12.620Z,9.97
2017-10-06T07:34:39.204Z,9.60
2017-10-06T07:37:05.776Z,9.43
2017-10-06T07:39:32.508Z,8.90
2017-10-06T07:41:59.081Z,9.30
2017-10-06T07:44:25.664Z,10.93
2017-10-06T07:46:52.344Z,8.93
2017-10-06T07:49:18.924Z,8.10
2017-10-06T07:51:45.492Z,8.40
2017-10-06T07:54:12.140Z,7.83
2017-10-06T07:56:38.713Z,7.60
2017-10-06T07:59:05.297Z,6.73
2017-10-06T08:01:32.052Z,7.60
2017-10-06T08:04:01.384Z,6.97
2017-10-06T08:06:27.952Z,5.80
2017-10-06T08:08:54.680Z,6.20
2017-10-06T08:11:21.289Z,5.73
2017-10-06T08:13:47.878Z,6.17
2017-10-06T08:16:14.614Z,5.73
2017-10-06T08:18:41.192Z,5.20
2017-10-06T08:21:07.756Z,5.20
2017-10-06T08:23:34.355Z,5.13
2017-10-06T08:26:00.929Z,4.60
2017-10-06T08:28:27.540Z,5.50
2017-10-06T08:30:54.162Z,5.37
2017-10-06T08:33:20.737Z,5.20
2017-10-06T08:35:47.343Z,5.07
2017-10-06T08:38:13.963Z,5.90
2017-10-06T08:40:40.529Z,5.10
2017-10-06T08:43:07.096Z,5.37
2017-10-06T08:45:33.850Z,5.30
2017-10-06T08:48:00.410Z,4.90
2017-10-06T08:50:26.981Z,5.70
2017-10-06T08:52:53.908Z,5.40
2017-10-06T08:55:20.476Z,5.50
2017-10-06T08:57:47.049Z,5.00
2017-10-06T09:00:13.932Z,5.30
2017-10-06T09:02:40.489Z,4.70
2017-10-06T09:05:07.064Z,4.83
2017-10-06T09:07:33.880Z,5.10
2017-10-06T09:10:00.438Z,4.77
2017-10-06T09:12:27.008Z,4.17
2017-10-06T09:14:53.608Z,4.30
2017-10-06T09:17:20.184Z,4.00
2017-10-06T09:19:46.756Z,4.03
2017-10-06T09:22:13.384Z,4.70
2017-10-06T09:24:40.024Z,4.17
2017-10-06T09:27:06.572Z,4.40
2017-10-06T09:29:33.171Z,3.67
2017-10-06T09:31:59.744Z,3.77
2017-10-06T09:34:26.312Z,3.90
2017-10-06T09:36:52.912Z,3.60
2017-10-06T09:39:19.484Z,3.47
2017-10-06T09:41:46.052Z,3.53
2017-10-06T09:44:12.776Z,3.40
2017-10-06T09:46:39.356Z,4.30
2017-10-06T09:49:05.929Z,3.63
2017-10-06T09:51:32.667Z,3.43
2017-10-06T09:53:59.213Z,3.00
2017-10-06T09:56:25.832Z,3.60
2017-10-06T09:58:52.736Z,2.70
2017-10-06T10:01:19.309Z,2.60
2017-10-06T10:03:45.878Z,2.93
2017-10-06T10:06:12.485Z,2.30
2017-10-06T10:08:39.060Z,2.53
2017-10-06T10:11:05.633Z,2.03
2017-10-06T10:13:32.537Z,1.87
2017-10-06T10:15:59.140Z,1.70
2017-10-06T10:18:25.713Z,1.80
2017-10-06T10:20:52.298Z,2.00
2017-10-06T10:23:18.878Z,1.90
2017-10-06T10:25:45.441Z,2.03
2017-10-06T10:28:12.057Z,1.70
2017-10-06T10:30:38.633Z,1.63
2017-10-06T10:33:05.200Z,1.60
2017-10-06T10:35:32.028Z,1.50
2017-10-06T10:37:58.591Z,1.63
2017-10-06T10:40:25.161Z,1.90
2017-10-06T10:42:51.738Z,2.60
2017-10-06T10:45:18.308Z,2.63
2017-10-06T10:47:44.876Z,2.50
2017-10-06T10:50:11.480Z,2.23
2017-10-06T10:52:38.064Z,1.87
2017-10-06T10:55:04.645Z,2.00
2017-10-06T10:57:31.240Z,2.10
2017-10-06T10:59:57.804Z,2.17
2017-10-06T11:02:24.381Z,2.53
2017-10-06T11:04:51.113Z,2.60
2017-10-06T11:07:17.675Z,2.80
2017-10-06T11:09:44.244Z,2.67
2017-10-06T11:12:11.148Z,3.67
2017-10-06T11:14:37.721Z,3.37
2017-10-06T11:17:04.296Z,2.83
2017-10-06T11:19:31.088Z,2.50
2017-10-06T11:21:57.668Z,2.80
2017-10-06T11:24:24.237Z,2.50
2017-10-06T11:26:50.824Z,2.20
2017-10-06T11:29:17.401Z,2.07
2017-10-06T11:31:43.971Z,2.20
2017-10-06T11:34:10.653Z,2.20
2017-10-06T11:36:37.243Z,2.00
2017-10-06T11:39:03.808Z,2.00
2017-10-06T11:41:30.392Z,2.10
2017-10-06T11:43:56.968Z,2.40
2017-10-06T11:46:23.541Z,2.20
2017-10-06T11:48:50.777Z,2.37
2017-10-06T11:51:17.324Z,2.20
2017-10-06T11:53:43.904Z,2.30
2017-10-06T11:56:16.912Z,2.03
2017-10-06T11:58:43.484Z,2.17
2017-10-06T12:01:10.052Z,2.03
2017-10-06T12:03:46.730Z,2.20
2017-10-06T12:06:13.368Z,1.70
2017-10-06T12:08:39.937Z,1.83
2017-10-06T12:11:06.666Z,1.50
2017-10-06T12:13:33.248Z,1.70
2017-10-06T12:15:59.823Z,1.40
2017-10-06T12:18:26.593Z,1.77
2017-10-06T12:20:53.164Z,1.40
2017-10-06T12:23:19.736Z,1.40
2017-10-06T12:25:46.472Z,1.80
2017-10-06T12:28:13.084Z,1.60
2017-10-06T12:30:39.712Z,1.80
2017-10-06T12:33:06.313Z,1.87
2017-10-06T12:35:32.892Z,1.77
2017-10-06T12:37:59.465Z,1.50
2017-10-06T12:40:26.065Z,1.60
2017-10-06T12:42:52.645Z,1.50
2017-10-06T12:45:19.213Z,1.40
2017-10-06T12:47:45.888Z,1.83
2017-10-06T12:52:45.568Z,1.60
2017-10-06T12:55:12.117Z,1.53
2017-10-06T12:57:38.692Z,1.50
2017-10-06T13:00:05.319Z,1.63
2017-10-06T13:02:31.888Z,1.50
2017-10-06T13:04:58.469Z,1.50
2017-10-06T13:07:25.212Z,1.57
2017-10-06T13:09:51.774Z,1.77
2017-10-06T13:12:18.357Z,1.50
2017-10-06T13:14:44.939Z,1.97
2017-10-06T13:17:11.513Z,1.50
2017-10-06T13:19:38.084Z,1.60
2017-10-06T13:22:04.817Z,2.70
2017-10-06T13:24:31.398Z,1.80
2017-10-06T13:26:57.958Z,2.00
2017-10-06T13:29:24.540Z,2.40
2017-10-06T13:31:51.226Z,2.47
2017-10-06T13:34:17.777Z,2.47
2017-10-06T13:36:44.654Z,2.70
2017-10-06T13:39:11.252Z,1.93
2017-10-06T13:41:37.828Z,2.13
2017-10-06T13:44:04.424Z,1.93
2017-10-06T13:46:30.989Z,1.93
2017-10-06T13:48:57.556Z,1.80
2017-10-06T13:51:24.153Z,1.67
2017-10-06T13:53:50.722Z,1.80
2017-10-06T13:56:17.289Z,1.40
2017-10-06T13:58:44.156Z,1.43
2017-10-06T14:01:10.729Z,1.70
2017-10-06T14:03:37.296Z,1.67
2017-10-06T14:06:03.884Z,1.90
2017-10-06T14:08:30.456Z,1.40
2017-10-06T14:10:57.024Z,1.43
2017-10-06T14:13:23.784Z,2.03
2017-10-06T14:15:50.352Z,1.80
2017-10-06T14:18:16.933Z,2.33
2017-10-06T14:20:43.836Z,1.70
2017-10-06T14:23:10.409Z,1.73
2017-10-06T14:25:36.981Z,1.80
2017-10-06T14:28:03.657Z,1.73
2017-10-06T14:30:30.228Z,1.83
2017-10-06T14:32:56.801Z,1.80
2017-10-06T14:35:23.384Z,1.87
2017-10-06T14:37:49.952Z,1.77
2017-10-06T14:40:16.525Z,1.87
2017-10-06T14:42:43.252Z,1.70
2017-10-06T14:45:09.822Z,2.00
2017-10-06T14:47:36.396Z,1.80
2017-10-06T14:50:03.124Z,1.70
2017-10-06T14:52:29.716Z,1.73
2017-10-06T14:54:59.208Z,1.47
2017-10-06T14:57:25.769Z,1.67
2017-10-06T14:59:52.348Z,1.50
2017-10-06T15:02:18.919Z,2.73
2017-10-06T15:04:45.521Z,1.73
2017-10-06T15:07:12.089Z,2.60
2017-10-06T15:09:38.661Z,1.87
2017-10-06T15:12:05.413Z,2.30
2017-10-06T15:14:32.017Z,1.73
2017-10-06T15:16:58.589Z,2.40
2017-10-06T15:19:31.303Z,2.47
2017-10-06T15:21:57.892Z,2.20
2017-10-06T15:27:08.877Z,2.07
2017-10-06T15:29:35.776Z,2.33
2017-10-06T15:32:02.353Z,2.73
2017-10-06T15:34:29.276Z,2.23
2017-10-06T15:36:55.864Z,1.97
2017-10-06T15:48:08.463Z,2.60
2017-10-06T15:50:35.048Z,3.20
2017-10-06T15:53:01.641Z,2.70
2017-10-06T15:55:28.233Z,3.10
2017-10-06T16:00:38.852Z,2.30
2017-10-06T16:03:05.420Z,2.20
2017-10-06T16:05:31.993Z,2.20
2017-10-06T16:07:58.788Z,2.20
2017-10-06T16:10:25.353Z,2.33
2017-10-06T16:12:51.924Z,2.17
2017-10-06T16:15:18.515Z,2.10
2017-10-06T16:17:45.302Z,2.60
2017-10-06T16:20:19.976Z,2.17
2017-10-06T16:22:49.861Z,2.40
2017-10-06T16:25:16.429Z,2.40
2017-10-06T16:27:43.152Z,2.30
2017-10-06T16:30:19.852Z,2.10
2017-10-06T16:32:46.556Z,2.60
2017-10-06T16:35:13.129Z,2.40
2017-10-06T16:37:39.704Z,2.57
2017-10-06T16:40:06.429Z,2.93
2017-10-06T16:42:38.765Z,2.50
2017-10-06T16:45:08.916Z,2.63
2017-10-06T16:47:38.707Z,2.87
2017-10-06T16:50:05.277Z,3.30
2017-10-06T16:52:38.100Z,6.70
2017-10-06T16:55:04.673Z,5.20
2017-10-06T16:57:31.268Z,4.23
2017-10-06T16:59:57.990Z,3.23
2017-10-06T17:02:28.134Z,3.23
2017-10-06T17:04:54.700Z,3.30
2017-10-06T17:07:27.450Z,3.00
2017-10-06T17:09:54.030Z,2.80
2017-10-06T17:12:20.612Z,2.60
2017-10-06T17:14:47.397Z,2.80
2017-10-06T17:17:13.987Z,2.30
2017-10-06T17:19:40.544Z,2.40
2017-10-06T17:22:07.155Z,2.23
2017-10-06T17:24:33.744Z,2.80
2017-10-06T17:27:00.313Z,2.50
2017-10-06T17:29:26.896Z,2.80
2017-10-06T17:34:37.716Z,2.67
2017-10-06T17:37:04.332Z,2.30
2017-10-06T17:39:30.920Z,2.57
2017-10-06T17:41:57.524Z,3.57
2017-10-06T17:44:24.083Z,4.23
2017-10-06T17:46:50.653Z,3.33
2017-10-06T17:49:17.473Z,3.53
2017-10-06T17:51:44.045Z,3.30
2017-10-06T17:54:10.616Z,3.60
2017-10-06T17:56:37.351Z,3.60
2017-10-06T17:59:03.932Z,4.43
2017-10-06T18:01:30.508Z,4.60
2017-10-06T18:03:57.150Z,4.10
2017-10-06T18:11:53.777Z,4.90
2017-10-06T18:14:20.365Z,4.87
2017-10-06T18:16:46.973Z,4.73
2017-10-06T18:19:13.850Z,4.13
2017-10-06T18:21:40.433Z,3.20
2017-10-06T18:24:07.013Z,3.30
2017-10-06T18:26:33.621Z,3.13
2017-10-06T18:29:00.204Z,3.57
2017-10-06T18:31:26.790Z,3.03
2017-10-06T18:33:53.461Z,3.50
2017-10-06T18:36:20.054Z,3.27
2017-10-06T18:38:46.613Z,2.73
2017-10-06T18:41:13.289Z,3.10
2017-10-06T18:43:39.869Z,3.77
2017-10-06T18:46:06.450Z,3.03
2017-10-06T18:48:33.073Z,3.93
2017-10-06T18:50:59.648Z,4.10
2017-10-06T18:53:26.226Z,3.53
2017-10-06T18:55:52.847Z,3.40
2017-10-06T18:58:19.439Z,3.30
2017-10-06T19:00:46.013Z,4.50
2017-10-06T19:03:12.973Z,4.50
2017-10-06T19:05:39.554Z,4.80
2017-10-06T19:08:06.179Z,3.97
2017-10-06T19:10:32.922Z,3.80
2017-10-06T19:12:59.474Z,3.70
2017-10-06T19:15:26.058Z,4.23
2017-10-06T19:17:53.152Z,4.50
2017-10-06T19:20:19.729Z,3.73
2017-10-06T19:22:46.310Z,4.20
2017-10-06T19:25:12.986Z,3.57
2017-10-06T19:27:39.563Z,3.53
2017-10-06T19:30:06.138Z,3.53
2017-10-06T19:32:32.734Z,3.20
2017-10-06T19:34:59.309Z,3.03
2017-10-06T19:37:25.941Z,3.03
2017-10-06T19:39:52.675Z,3.57
2017-10-06T19:42:19.264Z,3.30
2017-10-06T19:47:30.063Z,4.10
2017-10-06T19:49:56.671Z,5.13
2017-10-06T19:52:23.270Z,5.20
2017-10-06T19:54:49.891Z,6.60
2017-10-06T19:57:16.482Z,4.63
2017-10-06T19:59:43.070Z,3.53
2017-10-06T20:02:09.695Z,4.63
2017-10-06T20:04:36.307Z,3.30
2017-10-06T20:07:02.906Z,2.80
2017-10-06T20:09:29.507Z,3.63
2017-10-06T20:11:56.087Z,3.43
2017-10-06T20:14:22.683Z,4.10
2017-10-06T20:16:49.267Z,3.17
2017-10-06T20:19:15.863Z,4.43
2017-10-06T20:21:42.473Z,3.43
2017-10-06T20:24:09.203Z,3.33
2017-10-06T20:26:35.779Z,3.60
2017-10-06T20:29:02.367Z,3.30
2017-10-06T20:31:28.975Z,2.80
2017-10-06T20:33:55.571Z,2.93
2017-10-06T20:36:22.146Z,3.43
2017-10-06T20:38:48.743Z,3.13
2017-10-06T20:41:15.326Z,2.70
2017-10-06T20:43:41.930Z,2.80
2017-10-06T20:46:08.516Z,2.80
2017-10-06T20:48:35.102Z,3.10
2017-10-06T20:51:01.699Z,3.20
2017-10-06T20:53:28.287Z,3.70
2017-10-06T20:55:54.876Z,3.10
2017-10-06T20:58:28.190Z,3.30
2017-10-06T21:01:01.140Z,3.10
2017-10-06T21:03:27.725Z,3.10
2017-10-06T21:05:54.345Z,3.43
2017-10-06T21:08:28.994Z,3.20
2017-10-06T21:10:55.583Z,2.80
2017-10-06T21:13:22.183Z,2.83
2017-10-06T21:15:48.768Z,3.10
2017-10-06T21:18:18.814Z,3.00
2017-10-06T21:20:45.431Z,3.33
2017-10-06T21:23:18.750Z,3.27
2017-10-06T21:25:45.438Z,2.80
2017-10-06T21:28:12.054Z,2.83
2017-10-06T21:30:38.791Z,3.17
2017-10-06T21:33:05.396Z,3.20
2017-10-06T21:35:32.007Z,2.80
2017-10-06T21:37:58.611Z,3.60
2017-10-06T21:40:25.199Z,4.13
2017-10-06T21:42:58.698Z,3.00
2017-10-06T21:45:25.285Z,3.27
2017-10-06T21:47:51.867Z,3.17
2017-10-06T21:50:22.280Z,2.83
2017-10-06T21:52:52.782Z,3.10
2017-10-06T21:55:19.373Z,3.13
2017-10-06T21:57:45.959Z,3.20
2017-10-06T22:00:12.550Z,3.37
2017-10-06T22:02:42.067Z,3.20
2017-10-06T22:05:08.647Z,3.30
2017-10-06T22:07:35.266Z,3.80
2017-10-06T22:10:01.868Z,3.60
2017-10-06T22:12:28.446Z,3.77
2017-10-06T22:14:55.025Z,3.40
2017-10-06T22:17:21.614Z,3.30
2017-10-06T22:22:33.673Z,3.77
2017-10-06T22:25:00.258Z,3.30
2017-10-06T22:27:26.834Z,3.50
2017-10-06T22:29:53.436Z,3.00
2017-10-06T22:32:20.013Z,3.77
2017-10-06T22:34:46.623Z,3.33
2017-10-06T22:37:13.219Z,3.53
2017-10-06T22:39:39.793Z,3.23
2017-10-06T22:42:06.382Z,3.70
2017-10-06T22:44:32.983Z,3.10
2017-10-06T22:46:59.565Z,3.70
2017-10-06T22:49:26.150Z,4.00
2017-10-06T22:51:52.761Z,3.47
2017-10-06T22:54:19.334Z,3.17
2017-10-06T22:56:45.917Z,3.67
2017-10-06T22:59:12.509Z,3.80
2017-10-06T23:01:39.093Z,3.33
2017-10-06T23:04:05.699Z,3.37
2017-10-06T23:06:32.277Z,3.67
2017-10-06T23:08:58.879Z,3.70
2017-10-06T23:11:25.460Z,3.10
2017-10-06T23:13:52.054Z,4.40
2017-10-06T23:16:18.635Z,3.10
2017-10-06T23:18:45.214Z,3.53
2017-10-06T23:21:11.810Z,3.17
2017-10-06T23:23:38.386Z,3.90
2017-10-06T23:26:04.964Z,3.53
2017-10-06T23:28:31.569Z,3.00
2017-10-06T23:30:58.150Z,3.70
2017-10-06T23:33:24.739Z,3.60
2017-10-06T23:35:51.337Z,3.60
2017-10-06T23:38:17.913Z,4.10
2017-10-06T23:40:44.498Z,3.97
2017-10-06T23:43:11.098Z,3.87
2017-10-06T23:45:37.701Z,4.07
2017-10-06T23:48:04.283Z,3.80
2017-10-06T23:50:30.874Z,3.50
2017-10-06T23:52:57.464Z,3.63
2017-10-06T23:55:24.057Z,3.80
2017-10-06T23:57:50.650Z,4.33
